sensor_id;sensor_type;location;lat;lon;timestamp;P1;durP1;ratioP1;P2;durP2;ratioP2
7450;SDS011;3767;42.688;23.360;2022-12-18T00:00:58;6.13;;;5.53;;
7450;SDS011;3767;42.688;23.360;2022-12-18T00:03:24;8.23;;;5.97;;
7450;SDS011;3767;42.688;23.360;2022-12-18T00:05:51;7.23;;;5.77;;
7450;SDS011;3767;42.688;23.360;2022-12-18T00:08:18;10.03;;;5.87;;
7450;SDS011;3767;42.688;23.360;2022-12-18T00:10:45;6.60;;;5.37;;
7450;SDS011;3767;42.688;23.360;2022-12-18T00:13:13;7.07;;;5.30;;
7450;SDS011;3767;42.688;23.360;2022-12-18T00:15:39;7.30;;;5.93;;
7450;SDS011;3767;42.688;23.360;2022-12-18T00:18:06;6.93;;;5.40;;
7450;SDS011;3767;42.688;23.360;2022-12-18T00:20:35;7.70;;;6.40;;
7450;SDS011;3767;42.688;23.360;2022-12-18T00:23:02;11.27;;;6.07;;
7450;SDS011;3767;42.688;23.360;2022-12-18T00:25:28;9.40;;;6.47;;
7450;SDS011;3767;42.688;23.360;2022-12-18T00:27:55;9.97;;;5.93;;
7450;SDS011;3767;42.688;23.360;2022-12-18T00:30:22;7.50;;;5.70;;
7450;SDS011;3767;42.688;23.360;2022-12-18T00:32:49;7.70;;;6.10;;
7450;SDS011;3767;42.688;23.360;2022-12-18T00:35:15;9.47;;;6.40;;
7450;SDS011;3767;42.688;23.360;2022-12-18T00:37:42;9.53;;;6.67;;
7450;SDS011;3767;42.688;23.360;2022-12-18T00:40:09;9.83;;;6.87;;
7450;SDS011;3767;42.688;23.360;2022-12-18T00:42:35;8.97;;;6.20;;
7450;SDS011;3767;42.688;23.360;2022-12-18T00:45:19;7.20;;;6.20;;
7450;SDS011;3767;42.688;23.360;2022-12-18T00:47:47;6.97;;;5.77;;
7450;SDS011;3767;42.688;23.360;2022-12-18T00:50:14;8.17;;;6.30;;
7450;SDS011;3767;42.688;23.360;2022-12-18T00:52:40;8.13;;;5.60;;
7450;SDS011;3767;42.688;23.360;2022-12-18T00:55:07;8.27;;;6.47;;
7450;SDS011;3767;42.688;23.360;2022-12-18T00:57:34;9.43;;;5.97;;
7450;SDS011;3767;42.688;23.360;2022-12-18T01:00:00;7.13;;;5.80;;
7450;SDS011;3767;42.688;23.360;2022-12-18T01:02:27;8.60;;;6.17;;
7450;SDS011;3767;42.688;23.360;2022-12-18T01:04:55;8.43;;;6.20;;
7450;SDS011;3767;42.688;23.360;2022-12-18T01:07:21;9.63;;;6.37;;
7450;SDS011;3767;42.688;23.360;2022-12-18T01:09:48;8.43;;;6.10;;
7450;SDS011;3767;42.688;23.360;2022-12-18T01:12:14;7.40;;;6.43;;
7450;SDS011;3767;42.688;23.360;2022-12-18T01:14:40;8.13;;;6.43;;
7450;SDS011;3767;42.688;23.360;2022-12-18T01:17:07;8.63;;;6.40;;
7450;SDS011;3767;42.688;23.360;2022-12-18T01:19:34;9.00;;;6.63;;
7450;SDS011;3767;42.688;23.360;2022-12-18T01:22:01;9.67;;;6.13;;
7450;SDS011;3767;42.688;23.360;2022-12-18T01:24:28;10.33;;;6.87;;
7450;SDS011;3767;42.688;23.360;2022-12-18T01:26:54;9.17;;;6.63;;
7450;SDS011;3767;42.688;23.360;2022-12-18T01:29:22;9.00;;;6.53;;
7450;SDS011;3767;42.688;23.360;2022-12-18T01:31:48;9.20;;;7.17;;
7450;SDS011;3767;42.688;23.360;2022-12-18T01:34:15;9.23;;;7.53;;
7450;SDS011;3767;42.688;23.360;2022-12-18T01:36:41;10.27;;;6.70;;
7450;SDS011;3767;42.688;23.360;2022-12-18T01:39:11;11.17;;;7.30;;
7450;SDS011;3767;42.688;23.360;2022-12-18T01:41:38;10.83;;;6.50;;
7450;SDS011;3767;42.688;23.360;2022-12-18T01:47:09;12.40;;;7.97;;
7450;SDS011;3767;42.688;23.360;2022-12-18T01:49:40;10.73;;;7.20;;
7450;SDS011;3767;42.688;23.360;2022-12-18T01:52:06;11.33;;;6.87;;
7450;SDS011;3767;42.688;23.360;2022-12-18T01:54:34;11.03;;;7.60;;
7450;SDS011;3767;42.688;23.360;2022-12-18T01:57:01;12.70;;;7.70;;
7450;SDS011;3767;42.688;23.360;2022-12-18T01:59:27;13.13;;;7.40;;
7450;SDS011;3767;42.688;23.360;2022-12-18T02:01:55;11.07;;;7.33;;
7450;SDS011;3767;42.688;23.360;2022-12-18T02:04:21;9.73;;;6.90;;
7450;SDS011;3767;42.688;23.360;2022-12-18T02:06:49;9.90;;;6.83;;
7450;SDS011;3767;42.688;23.360;2022-12-18T02:09:18;11.10;;;6.97;;
7450;SDS011;3767;42.688;23.360;2022-12-18T02:11:49;9.13;;;6.63;;
7450;SDS011;3767;42.688;23.360;2022-12-18T02:14:23;11.47;;;6.93;;
7450;SDS011;3767;42.688;23.360;2022-12-18T02:16:55;8.40;;;6.13;;
7450;SDS011;3767;42.688;23.360;2022-12-18T02:19:39;10.20;;;7.00;;
7450;SDS011;3767;42.688;23.360;2022-12-18T02:22:12;8.53;;;6.23;;
7450;SDS011;3767;42.688;23.360;2022-12-18T02:24:44;9.03;;;6.53;;
7450;SDS011;3767;42.688;23.360;2022-12-18T02:27:16;9.67;;;6.30;;
7450;SDS011;3767;42.688;23.360;2022-12-18T02:29:44;8.57;;;6.40;;
7450;SDS011;3767;42.688;23.360;2022-12-18T02:32:13;7.30;;;5.93;;
7450;SDS011;3767;42.688;23.360;2022-12-18T02:34:42;7.83;;;6.10;;
7450;SDS011;3767;42.688;23.360;2022-12-18T02:37:10;8.13;;;6.30;;
7450;SDS011;3767;42.688;23.360;2022-12-18T02:39:38;9.80;;;6.60;;
7450;SDS011;3767;42.688;23.360;2022-12-18T02:42:04;8.43;;;5.77;;
7450;SDS011;3767;42.688;23.360;2022-12-18T02:44:34;7.30;;;6.10;;
7450;SDS011;3767;42.688;23.360;2022-12-18T02:47:01;8.43;;;6.10;;
7450;SDS011;3767;42.688;23.360;2022-12-18T02:49:31;6.97;;;5.97;;
7450;SDS011;3767;42.688;23.360;2022-12-18T02:52:01;8.17;;;6.47;;
7450;SDS011;3767;42.688;23.360;2022-12-18T02:54:34;8.00;;;6.20;;
7450;SDS011;3767;42.688;23.360;2022-12-18T02:57:06;9.23;;;6.30;;
7450;SDS011;3767;42.688;23.360;2022-12-18T02:59:38;9.33;;;6.47;;
7450;SDS011;3767;42.688;23.360;2022-12-18T03:02:08;8.53;;;6.37;;
7450;SDS011;3767;42.688;23.360;2022-12-18T03:04:38;9.17;;;6.67;;
7450;SDS011;3767;42.688;23.360;2022-12-18T03:07:07;7.83;;;5.90;;
7450;SDS011;3767;42.688;23.360;2022-12-18T03:09:36;10.43;;;7.17;;
7450;SDS011;3767;42.688;23.360;2022-12-18T03:12:05;8.30;;;6.23;;
7450;SDS011;3767;42.688;23.360;2022-12-18T03:14:54;9.00;;;6.53;;
7450;SDS011;3767;42.688;23.360;2022-12-18T03:17:22;8.63;;;6.60;;
7450;SDS011;3767;42.688;23.360;2022-12-18T03:19:50;7.60;;;6.37;;
7450;SDS011;3767;42.688;23.360;2022-12-18T03:22:17;9.00;;;6.23;;
7450;SDS011;3767;42.688;23.360;2022-12-18T03:24:44;10.67;;;6.80;;
7450;SDS011;3767;42.688;23.360;2022-12-18T03:27:12;8.53;;;6.27;;
7450;SDS011;3767;42.688;23.360;2022-12-18T03:29:42;7.90;;;6.07;;
7450;SDS011;3767;42.688;23.360;2022-12-18T03:32:11;7.97;;;6.37;;
7450;SDS011;3767;42.688;23.360;2022-12-18T03:34:39;8.60;;;5.97;;
7450;SDS011;3767;42.688;23.360;2022-12-18T03:37:07;10.07;;;6.57;;
7450;SDS011;3767;42.688;23.360;2022-12-18T03:39:33;7.90;;;6.23;;
7450;SDS011;3767;42.688;23.360;2022-12-18T03:42:01;9.17;;;6.23;;
7450;SDS011;3767;42.688;23.360;2022-12-18T03:44:32;8.53;;;6.00;;
7450;SDS011;3767;42.688;23.360;2022-12-18T03:47:02;7.67;;;5.90;;
7450;SDS011;3767;42.688;23.360;2022-12-18T03:49:33;8.07;;;6.30;;
7450;SDS011;3767;42.688;23.360;2022-12-18T03:52:02;8.57;;;6.37;;
7450;SDS011;3767;42.688;23.360;2022-12-18T03:54:30;9.60;;;6.60;;
7450;SDS011;3767;42.688;23.360;2022-12-18T03:56:57;10.10;;;6.73;;
7450;SDS011;3767;42.688;23.360;2022-12-18T03:59:25;10.00;;;6.43;;
7450;SDS011;3767;42.688;23.360;2022-12-18T04:01:53;11.77;;;7.40;;
7450;SDS011;3767;42.688;23.360;2022-12-18T04:04:20;9.33;;;6.60;;
7450;SDS011;3767;42.688;23.360;2022-12-18T04:06:49;9.27;;;5.83;;
7450;SDS011;3767;42.688;23.360;2022-12-18T04:09:16;11.33;;;6.20;;
7450;SDS011;3767;42.688;23.360;2022-12-18T04:11:43;9.17;;;6.53;;
7450;SDS011;3767;42.688;23.360;2022-12-18T04:14:09;8.97;;;6.50;;
7450;SDS011;3767;42.688;23.360;2022-12-18T04:16:36;9.83;;;6.60;;
7450;SDS011;3767;42.688;23.360;2022-12-18T04:19:02;8.57;;;6.73;;
7450;SDS011;3767;42.688;23.360;2022-12-18T04:21:29;11.33;;;7.10;;
7450;SDS011;3767;42.688;23.360;2022-12-18T04:23:57;11.80;;;7.90;;
7450;SDS011;3767;42.688;23.360;2022-12-18T04:26:23;11.03;;;6.93;;
7450;SDS011;3767;42.688;23.360;2022-12-18T04:28:50;10.67;;;7.47;;
7450;SDS011;3767;42.688;23.360;2022-12-18T04:31:16;12.90;;;7.40;;
7450;SDS011;3767;42.688;23.360;2022-12-18T04:33:43;10.40;;;7.00;;
7450;SDS011;3767;42.688;23.360;2022-12-18T04:36:09;11.37;;;7.87;;
7450;SDS011;3767;42.688;23.360;2022-12-18T04:38:37;12.83;;;7.70;;
7450;SDS011;3767;42.688;23.360;2022-12-18T04:41:05;14.73;;;7.93;;
7450;SDS011;3767;42.688;23.360;2022-12-18T04:43:31;14.33;;;8.50;;
7450;SDS011;3767;42.688;23.360;2022-12-18T04:46:02;13.33;;;8.43;;
7450;SDS011;3767;42.688;23.360;2022-12-18T04:48:28;13.90;;;8.47;;
7450;SDS011;3767;42.688;23.360;2022-12-18T04:50:55;14.70;;;8.50;;
7450;SDS011;3767;42.688;23.360;2022-12-18T04:53:21;14.07;;;8.67;;
7450;SDS011;3767;42.688;23.360;2022-12-18T04:55:48;15.43;;;8.83;;
7450;SDS011;3767;42.688;23.360;2022-12-18T04:58:16;14.47;;;8.37;;
7450;SDS011;3767;42.688;23.360;2022-12-18T05:00:42;15.83;;;8.80;;
7450;SDS011;3767;42.688;23.360;2022-12-18T05:03:09;15.43;;;8.40;;
7450;SDS011;3767;42.688;23.360;2022-12-18T05:05:35;16.73;;;8.77;;
7450;SDS011;3767;42.688;23.360;2022-12-18T05:08:03;14.83;;;8.90;;
7450;SDS011;3767;42.688;23.360;2022-12-18T05:10:30;14.73;;;9.20;;
7450;SDS011;3767;42.688;23.360;2022-12-18T05:12:56;15.23;;;9.03;;
7450;SDS011;3767;42.688;23.360;2022-12-18T05:15:28;17.63;;;8.97;;
7450;SDS011;3767;42.688;23.360;2022-12-18T05:17:55;20.37;;;10.53;;
7450;SDS011;3767;42.688;23.360;2022-12-18T05:20:21;17.93;;;9.90;;
7450;SDS011;3767;42.688;23.360;2022-12-18T05:22:48;20.13;;;10.07;;
7450;SDS011;3767;42.688;23.360;2022-12-18T05:25:14;18.00;;;10.13;;
7450;SDS011;3767;42.688;23.360;2022-12-18T05:27:41;17.20;;;9.80;;
7450;SDS011;3767;42.688;23.360;2022-12-18T05:30:08;16.93;;;9.80;;
7450;SDS011;3767;42.688;23.360;2022-12-18T05:32:36;18.80;;;10.30;;
7450;SDS011;3767;42.688;23.360;2022-12-18T05:35:05;20.30;;;10.30;;
7450;SDS011;3767;42.688;23.360;2022-12-18T05:37:33;17.13;;;10.13;;
7450;SDS011;3767;42.688;23.360;2022-12-18T05:39:59;20.00;;;10.10;;
7450;SDS011;3767;42.688;23.360;2022-12-18T05:42:26;17.57;;;9.47;;
7450;SDS011;3767;42.688;23.360;2022-12-18T05:44:52;19.33;;;10.67;;
7450;SDS011;3767;42.688;23.360;2022-12-18T05:47:19;16.43;;;9.37;;
7450;SDS011;3767;42.688;23.360;2022-12-18T05:49:47;19.67;;;10.63;;
7450;SDS011;3767;42.688;23.360;2022-12-18T05:52:13;18.10;;;9.60;;
7450;SDS011;3767;42.688;23.360;2022-12-18T05:54:39;19.90;;;10.87;;
7450;SDS011;3767;42.688;23.360;2022-12-18T05:57:06;17.13;;;9.93;;
7450;SDS011;3767;42.688;23.360;2022-12-18T05:59:33;17.87;;;10.23;;
7450;SDS011;3767;42.688;23.360;2022-12-18T06:01:59;16.37;;;9.87;;
7450;SDS011;3767;42.688;23.360;2022-12-18T06:04:26;22.00;;;10.13;;
7450;SDS011;3767;42.688;23.360;2022-12-18T06:06:54;20.93;;;10.63;;
7450;SDS011;3767;42.688;23.360;2022-12-18T06:09:20;21.60;;;11.07;;
7450;SDS011;3767;42.688;23.360;2022-12-18T06:11:47;23.00;;;11.40;;
7450;SDS011;3767;42.688;23.360;2022-12-18T06:14:14;21.00;;;10.87;;
7450;SDS011;3767;42.688;23.360;2022-12-18T06:16:42;20.27;;;10.97;;
7450;SDS011;3767;42.688;23.360;2022-12-18T06:19:12;20.40;;;10.97;;
7450;SDS011;3767;42.688;23.360;2022-12-18T06:21:40;23.63;;;10.87;;
7450;SDS011;3767;42.688;23.360;2022-12-18T06:24:08;20.73;;;10.87;;
7450;SDS011;3767;42.688;23.360;2022-12-18T06:26:36;19.67;;;10.47;;
7450;SDS011;3767;42.688;23.360;2022-12-18T06:29:02;20.63;;;10.90;;
7450;SDS011;3767;42.688;23.360;2022-12-18T06:31:29;21.13;;;10.63;;
7450;SDS011;3767;42.688;23.360;2022-12-18T06:33:55;20.17;;;10.67;;
7450;SDS011;3767;42.688;23.360;2022-12-18T06:36:22;19.50;;;10.73;;
7450;SDS011;3767;42.688;23.360;2022-12-18T06:38:48;21.97;;;11.13;;
7450;SDS011;3767;42.688;23.360;2022-12-18T06:41:17;19.53;;;10.73;;
7450;SDS011;3767;42.688;23.360;2022-12-18T06:43:44;19.33;;;10.60;;
7450;SDS011;3767;42.688;23.360;2022-12-18T06:46:10;20.30;;;10.90;;
7450;SDS011;3767;42.688;23.360;2022-12-18T06:48:37;21.80;;;10.80;;
7450;SDS011;3767;42.688;23.360;2022-12-18T06:51:04;18.33;;;10.13;;
7450;SDS011;3767;42.688;23.360;2022-12-18T06:53:31;18.70;;;10.33;;
7450;SDS011;3767;42.688;23.360;2022-12-18T06:55:59;19.00;;;10.47;;
7450;SDS011;3767;42.688;23.360;2022-12-18T06:58:28;18.40;;;10.40;;
7450;SDS011;3767;42.688;23.360;2022-12-18T07:00:58;18.47;;;10.77;;
7450;SDS011;3767;42.688;23.360;2022-12-18T07:03:25;19.30;;;10.60;;
7450;SDS011;3767;42.688;23.360;2022-12-18T07:05:51;19.87;;;10.27;;
7450;SDS011;3767;42.688;23.360;2022-12-18T07:08:18;20.30;;;10.17;;
7450;SDS011;3767;42.688;23.360;2022-12-18T07:10:44;16.63;;;9.33;;
7450;SDS011;3767;42.688;23.360;2022-12-18T07:13:11;16.63;;;9.83;;
7450;SDS011;3767;42.688;23.360;2022-12-18T07:15:39;18.83;;;9.67;;
7450;SDS011;3767;42.688;23.360;2022-12-18T07:18:05;18.27;;;9.80;;
7450;SDS011;3767;42.688;23.360;2022-12-18T07:20:32;18.17;;;9.83;;
7450;SDS011;3767;42.688;23.360;2022-12-18T07:23:01;21.27;;;10.67;;
7450;SDS011;3767;42.688;23.360;2022-12-18T07:25:27;21.63;;;10.80;;
7450;SDS011;3767;42.688;23.360;2022-12-18T07:27:54;23.23;;;10.97;;
7450;SDS011;3767;42.688;23.360;2022-12-18T07:30:21;19.87;;;11.53;;
7450;SDS011;3767;42.688;23.360;2022-12-18T07:32:49;24.00;;;11.30;;
7450;SDS011;3767;42.688;23.360;2022-12-18T07:35:15;21.53;;;11.83;;
7450;SDS011;3767;42.688;23.360;2022-12-18T07:37:42;25.33;;;12.33;;
7450;SDS011;3767;42.688;23.360;2022-12-18T07:40:09;24.63;;;12.40;;
7450;SDS011;3767;42.688;23.360;2022-12-18T07:42:36;25.00;;;12.97;;
7450;SDS011;3767;42.688;23.360;2022-12-18T07:45:03;22.23;;;12.03;;
7450;SDS011;3767;42.688;23.360;2022-12-18T07:47:30;23.47;;;11.97;;
7450;SDS011;3767;42.688;23.360;2022-12-18T07:49:59;25.70;;;12.77;;
7450;SDS011;3767;42.688;23.360;2022-12-18T07:52:26;24.53;;;13.17;;
7450;SDS011;3767;42.688;23.360;2022-12-18T07:54:53;23.23;;;12.33;;
7450;SDS011;3767;42.688;23.360;2022-12-18T07:57:19;23.93;;;12.20;;
7450;SDS011;3767;42.688;23.360;2022-12-18T07:59:46;25.97;;;12.50;;
7450;SDS011;3767;42.688;23.360;2022-12-18T08:02:12;23.53;;;13.00;;
7450;SDS011;3767;42.688;23.360;2022-12-18T08:04:39;27.33;;;12.40;;
7450;SDS011;3767;42.688;23.360;2022-12-18T08:07:07;22.17;;;12.53;;
7450;SDS011;3767;42.688;23.360;2022-12-18T08:09:34;26.63;;;13.13;;
7450;SDS011;3767;42.688;23.360;2022-12-18T08:12:00;26.83;;;13.00;;
7450;SDS011;3767;42.688;23.360;2022-12-18T08:14:27;25.40;;;12.53;;
7450;SDS011;3767;42.688;23.360;2022-12-18T08:16:53;24.07;;;12.47;;
7450;SDS011;3767;42.688;23.360;2022-12-18T08:19:20;25.07;;;13.03;;
7450;SDS011;3767;42.688;23.360;2022-12-18T08:21:46;24.97;;;13.07;;
7450;SDS011;3767;42.688;23.360;2022-12-18T08:24:14;23.20;;;12.37;;
7450;SDS011;3767;42.688;23.360;2022-12-18T08:26:41;27.67;;;13.10;;
7450;SDS011;3767;42.688;23.360;2022-12-18T08:29:08;26.90;;;12.63;;
7450;SDS011;3767;42.688;23.360;2022-12-18T08:31:34;24.33;;;12.13;;
7450;SDS011;3767;42.688;23.360;2022-12-18T08:34:01;24.40;;;12.23;;
7450;SDS011;3767;42.688;23.360;2022-12-18T08:36:30;22.93;;;12.47;;
7450;SDS011;3767;42.688;23.360;2022-12-18T08:38:57;27.73;;;13.37;;
7450;SDS011;3767;42.688;23.360;2022-12-18T08:41:24;24.37;;;12.47;;
7450;SDS011;3767;42.688;23.360;2022-12-18T08:43:51;24.47;;;13.00;;
7450;SDS011;3767;42.688;23.360;2022-12-18T08:46:36;24.63;;;12.50;;
7450;SDS011;3767;42.688;23.360;2022-12-18T08:49:03;23.17;;;11.73;;
7450;SDS011;3767;42.688;23.360;2022-12-18T08:51:30;25.63;;;12.00;;
7450;SDS011;3767;42.688;23.360;2022-12-18T08:53:56;23.57;;;12.87;;
7450;SDS011;3767;42.688;23.360;2022-12-18T08:56:24;22.03;;;11.57;;
7450;SDS011;3767;42.688;23.360;2022-12-18T08:58:51;21.97;;;12.27;;
7450;SDS011;3767;42.688;23.360;2022-12-18T09:01:17;25.47;;;12.13;;
7450;SDS011;3767;42.688;23.360;2022-12-18T09:03:44;21.50;;;11.77;;
7450;SDS011;3767;42.688;23.360;2022-12-18T09:06:13;23.00;;;12.07;;
7450;SDS011;3767;42.688;23.360;2022-12-18T09:08:39;28.47;;;11.83;;
7450;SDS011;3767;42.688;23.360;2022-12-18T09:11:09;24.30;;;11.20;;
7450;SDS011;3767;42.688;23.360;2022-12-18T09:13:38;20.93;;;11.10;;
7450;SDS011;3767;42.688;23.360;2022-12-18T09:16:04;20.80;;;11.17;;
7450;SDS011;3767;42.688;23.360;2022-12-18T09:18:31;21.13;;;10.40;;
7450;SDS011;3767;42.688;23.360;2022-12-18T09:20:57;21.23;;;11.30;;
7450;SDS011;3767;42.688;23.360;2022-12-18T09:23:24;20.87;;;10.80;;
7450;SDS011;3767;42.688;23.360;2022-12-18T09:25:50;21.50;;;10.47;;
7450;SDS011;3767;42.688;23.360;2022-12-18T09:28:17;18.40;;;9.97;;
7450;SDS011;3767;42.688;23.360;2022-12-18T09:30:47;20.57;;;10.73;;
7450;SDS011;3767;42.688;23.360;2022-12-18T09:33:13;19.43;;;10.53;;
7450;SDS011;3767;42.688;23.360;2022-12-18T09:35:40;21.57;;;11.00;;
7450;SDS011;3767;42.688;23.360;2022-12-18T09:38:07;21.17;;;10.47;;
7450;SDS011;3767;42.688;23.360;2022-12-18T09:40:36;20.37;;;10.73;;
7450;SDS011;3767;42.688;23.360;2022-12-18T09:43:05;21.33;;;10.53;;
7450;SDS011;3767;42.688;23.360;2022-12-18T09:45:34;19.80;;;10.37;;
7450;SDS011;3767;42.688;23.360;2022-12-18T09:48:05;20.63;;;10.63;;
7450;SDS011;3767;42.688;23.360;2022-12-18T09:50:36;21.60;;;9.97;;
7450;SDS011;3767;42.688;23.360;2022-12-18T09:53:05;22.30;;;11.53;;
7450;SDS011;3767;42.688;23.360;2022-12-18T09:55:33;19.43;;;10.60;;
7450;SDS011;3767;42.688;23.360;2022-12-18T09:58:02;18.07;;;9.77;;
7450;SDS011;3767;42.688;23.360;2022-12-18T10:00:30;21.53;;;11.50;;
7450;SDS011;3767;42.688;23.360;2022-12-18T10:02:58;20.47;;;11.20;;
7450;SDS011;3767;42.688;23.360;2022-12-18T10:05:29;21.67;;;10.80;;
7450;SDS011;3767;42.688;23.360;2022-12-18T10:08:01;22.67;;;11.50;;
7450;SDS011;3767;42.688;23.360;2022-12-18T10:10:31;21.50;;;11.63;;
7450;SDS011;3767;42.688;23.360;2022-12-18T10:13:02;19.97;;;10.60;;
7450;SDS011;3767;42.688;23.360;2022-12-18T10:15:34;25.13;;;12.13;;
7450;SDS011;3767;42.688;23.360;2022-12-18T10:18:04;21.37;;;10.87;;
7450;SDS011;3767;42.688;23.360;2022-12-18T10:20:35;18.77;;;10.10;;
7450;SDS011;3767;42.688;23.360;2022-12-18T10:23:08;17.37;;;9.93;;
7450;SDS011;3767;42.688;23.360;2022-12-18T10:25:40;21.43;;;10.63;;
7450;SDS011;3767;42.688;23.360;2022-12-18T10:28:09;18.37;;;9.60;;
7450;SDS011;3767;42.688;23.360;2022-12-18T10:30:37;23.53;;;11.00;;
7450;SDS011;3767;42.688;23.360;2022-12-18T10:33:04;20.70;;;10.90;;
7450;SDS011;3767;42.688;23.360;2022-12-18T10:35:31;21.97;;;10.87;;
7450;SDS011;3767;42.688;23.360;2022-12-18T10:38:06;19.73;;;10.30;;
7450;SDS011;3767;42.688;23.360;2022-12-18T10:40:36;22.77;;;11.13;;
7450;SDS011;3767;42.688;23.360;2022-12-18T10:43:14;19.47;;;10.17;;
7450;SDS011;3767;42.688;23.360;2022-12-18T10:45:43;22.93;;;10.63;;
7450;SDS011;3767;42.688;23.360;2022-12-18T10:48:24;21.67;;;10.33;;
7450;SDS011;3767;42.688;23.360;2022-12-18T10:50:50;18.70;;;10.33;;
7450;SDS011;3767;42.688;23.360;2022-12-18T10:53:19;20.93;;;11.00;;
7450;SDS011;3767;42.688;23.360;2022-12-18T10:55:46;22.73;;;11.53;;
7450;SDS011;3767;42.688;23.360;2022-12-18T10:58:16;20.73;;;10.57;;
7450;SDS011;3767;42.688;23.360;2022-12-18T11:00:44;23.93;;;11.20;;
7450;SDS011;3767;42.688;23.360;2022-12-18T11:05:52;24.40;;;11.43;;
7450;SDS011;3767;42.688;23.360;2022-12-18T11:08:28;24.50;;;11.60;;
7450;SDS011;3767;42.688;23.360;2022-12-18T11:10:54;21.67;;;11.10;;
7450;SDS011;3767;42.688;23.360;2022-12-18T11:13:23;23.90;;;11.87;;
7450;SDS011;3767;42.688;23.360;2022-12-18T11:15:50;24.03;;;12.17;;
7450;SDS011;3767;42.688;23.360;2022-12-18T11:18:17;21.83;;;11.77;;
7450;SDS011;3767;42.688;23.360;2022-12-18T11:20:49;19.97;;;11.37;;
7450;SDS011;3767;42.688;23.360;2022-12-18T11:23:16;19.93;;;11.10;;
7450;SDS011;3767;42.688;23.360;2022-12-18T11:25:51;21.03;;;11.23;;
7450;SDS011;3767;42.688;23.360;2022-12-18T11:28:25;21.80;;;11.00;;
7450;SDS011;3767;42.688;23.360;2022-12-18T11:31:08;35.90;;;16.70;;
7450;SDS011;3767;42.688;23.360;2022-12-18T11:33:35;23.07;;;11.57;;
7450;SDS011;3767;42.688;23.360;2022-12-18T11:36:03;31.70;;;16.33;;
7450;SDS011;3767;42.688;23.360;2022-12-18T11:38:32;19.73;;;10.63;;
7450;SDS011;3767;42.688;23.360;2022-12-18T11:41:02;22.07;;;11.03;;
7450;SDS011;3767;42.688;23.360;2022-12-18T11:43:31;22.33;;;12.07;;
7450;SDS011;3767;42.688;23.360;2022-12-18T11:46:02;19.83;;;11.10;;
7450;SDS011;3767;42.688;23.360;2022-12-18T11:48:30;22.83;;;11.27;;
7450;SDS011;3767;42.688;23.360;2022-12-18T11:50:58;27.63;;;12.70;;
7450;SDS011;3767;42.688;23.360;2022-12-18T11:53:26;26.93;;;13.63;;
7450;SDS011;3767;42.688;23.360;2022-12-18T11:56:03;28.73;;;14.90;;
7450;SDS011;3767;42.688;23.360;2022-12-18T11:58:39;24.90;;;12.50;;
7450;SDS011;3767;42.688;23.360;2022-12-18T12:01:12;20.47;;;11.27;;
7450;SDS011;3767;42.688;23.360;2022-12-18T12:03:58;19.47;;;10.40;;
7450;SDS011;3767;42.688;23.360;2022-12-18T12:06:29;19.90;;;10.57;;
7450;SDS011;3767;42.688;23.360;2022-12-18T12:09:01;20.73;;;10.90;;
7450;SDS011;3767;42.688;23.360;2022-12-18T12:11:35;23.77;;;11.37;;
7450;SDS011;3767;42.688;23.360;2022-12-18T12:14:17;21.83;;;11.73;;
7450;SDS011;3767;42.688;23.360;2022-12-18T12:16:48;24.33;;;11.30;;
7450;SDS011;3767;42.688;23.360;2022-12-18T12:19:20;24.13;;;12.07;;
7450;SDS011;3767;42.688;23.360;2022-12-18T12:21:49;24.97;;;12.33;;
7450;SDS011;3767;42.688;23.360;2022-12-18T12:24:22;24.80;;;11.73;;
7450;SDS011;3767;42.688;23.360;2022-12-18T12:26:55;23.03;;;12.23;;
7450;SDS011;3767;42.688;23.360;2022-12-18T12:29:27;23.53;;;11.77;;
7450;SDS011;3767;42.688;23.360;2022-12-18T12:32:03;26.60;;;12.80;;
7450;SDS011;3767;42.688;23.360;2022-12-18T12:34:33;24.10;;;11.93;;
7450;SDS011;3767;42.688;23.360;2022-12-18T12:37:07;19.97;;;10.57;;
7450;SDS011;3767;42.688;23.360;2022-12-18T12:39:36;23.07;;;11.47;;
7450;SDS011;3767;42.688;23.360;2022-12-18T12:42:05;23.33;;;12.53;;
7450;SDS011;3767;42.688;23.360;2022-12-18T12:44:50;20.87;;;11.50;;
7450;SDS011;3767;42.688;23.360;2022-12-18T12:47:19;22.07;;;11.50;;
7450;SDS011;3767;42.688;23.360;2022-12-18T12:49:46;21.20;;;10.83;;
7450;SDS011;3767;42.688;23.360;2022-12-18T12:52:15;30.33;;;15.40;;
7450;SDS011;3767;42.688;23.360;2022-12-18T12:54:42;27.23;;;11.73;;
7450;SDS011;3767;42.688;23.360;2022-12-18T12:57:12;23.33;;;11.60;;
7450;SDS011;3767;42.688;23.360;2022-12-18T12:59:47;25.77;;;12.73;;
7450;SDS011;3767;42.688;23.360;2022-12-18T13:02:18;26.03;;;12.43;;
7450;SDS011;3767;42.688;23.360;2022-12-18T13:04:47;24.77;;;12.17;;
7450;SDS011;3767;42.688;23.360;2022-12-18T13:07:15;26.60;;;13.20;;
7450;SDS011;3767;42.688;23.360;2022-12-18T13:12:25;26.73;;;12.33;;
7450;SDS011;3767;42.688;23.360;2022-12-18T13:15:13;22.67;;;11.60;;
7450;SDS011;3767;42.688;23.360;2022-12-18T13:17:46;22.47;;;11.33;;
7450;SDS011;3767;42.688;23.360;2022-12-18T13:20:13;23.50;;;11.60;;
7450;SDS011;3767;42.688;23.360;2022-12-18T13:22:41;25.77;;;12.23;;
7450;SDS011;3767;42.688;23.360;2022-12-18T13:25:28;20.57;;;11.13;;
7450;SDS011;3767;42.688;23.360;2022-12-18T13:30:44;21.57;;;10.73;;
7450;SDS011;3767;42.688;23.360;2022-12-18T13:36:09;23.93;;;11.47;;
7450;SDS011;3767;42.688;23.360;2022-12-18T13:38:37;25.23;;;11.30;;
7450;SDS011;3767;42.688;23.360;2022-12-18T13:41:04;22.47;;;11.23;;
7450;SDS011;3767;42.688;23.360;2022-12-18T13:43:47;26.47;;;12.70;;
7450;SDS011;3767;42.688;23.360;2022-12-18T13:46:19;22.77;;;11.97;;
7450;SDS011;3767;42.688;23.360;2022-12-18T13:48:50;22.77;;;11.80;;
7450;SDS011;3767;42.688;23.360;2022-12-18T13:51:18;21.97;;;10.90;;
7450;SDS011;3767;42.688;23.360;2022-12-18T13:53:46;24.00;;;11.53;;
7450;SDS011;3767;42.688;23.360;2022-12-18T13:56:15;25.47;;;11.77;;
7450;SDS011;3767;42.688;23.360;2022-12-18T13:58:41;28.60;;;15.13;;
7450;SDS011;3767;42.688;23.360;2022-12-18T14:01:15;26.57;;;13.43;;
7450;SDS011;3767;42.688;23.360;2022-12-18T14:03:48;32.53;;;15.37;;
7450;SDS011;3767;42.688;23.360;2022-12-18T14:06:15;28.13;;;13.67;;
7450;SDS011;3767;42.688;23.360;2022-12-18T14:08:42;21.93;;;11.47;;
7450;SDS011;3767;42.688;23.360;2022-12-18T14:11:17;23.37;;;11.93;;
7450;SDS011;3767;42.688;23.360;2022-12-18T14:13:44;22.03;;;11.80;;
7450;SDS011;3767;42.688;23.360;2022-12-18T14:16:13;24.87;;;12.07;;
7450;SDS011;3767;42.688;23.360;2022-12-18T14:18:42;20.30;;;11.23;;
7450;SDS011;3767;42.688;23.360;2022-12-18T14:21:17;22.00;;;11.33;;
7450;SDS011;3767;42.688;23.360;2022-12-18T14:23:44;24.37;;;12.07;;
7450;SDS011;3767;42.688;23.360;2022-12-18T14:26:22;26.13;;;10.97;;
7450;SDS011;3767;42.688;23.360;2022-12-18T14:28:48;23.07;;;11.97;;
7450;SDS011;3767;42.688;23.360;2022-12-18T14:31:18;22.13;;;11.47;;
7450;SDS011;3767;42.688;23.360;2022-12-18T14:33:45;21.60;;;11.60;;
7450;SDS011;3767;42.688;23.360;2022-12-18T14:36:13;20.70;;;11.73;;
7450;SDS011;3767;42.688;23.360;2022-12-18T14:38:42;23.83;;;11.83;;
7450;SDS011;3767;42.688;23.360;2022-12-18T14:41:10;24.63;;;11.97;;
7450;SDS011;3767;42.688;23.360;2022-12-18T14:43:38;21.47;;;11.70;;
7450;SDS011;3767;42.688;23.360;2022-12-18T14:46:04;22.13;;;11.67;;
7450;SDS011;3767;42.688;23.360;2022-12-18T14:48:33;19.50;;;10.57;;
7450;SDS011;3767;42.688;23.360;2022-12-18T14:51:02;17.50;;;10.00;;
7450;SDS011;3767;42.688;23.360;2022-12-18T14:53:33;19.13;;;10.60;;
7450;SDS011;3767;42.688;23.360;2022-12-18T14:56:02;18.23;;;9.60;;
7450;SDS011;3767;42.688;23.360;2022-12-18T14:58:29;19.47;;;10.20;;
7450;SDS011;3767;42.688;23.360;2022-12-18T15:00:55;19.80;;;10.27;;
7450;SDS011;3767;42.688;23.360;2022-12-18T15:03:22;20.60;;;11.10;;
7450;SDS011;3767;42.688;23.360;2022-12-18T15:05:48;24.40;;;10.97;;